KAIA/AIA METAR and TAF weather

Enter ICAO airport designator
Station Type Date Time Source
KAIA METAR 2019/08/22 03:53 UTC NOAA

KAIA 220353Z AUTO 14005KT 10SM CLR 18/16 A3012 RMK AO2 SLP164 T01830156


Station Type Date Time Source
KAIA Decoded METAR 2019/08/22 03:53 UTC NOAA

Station name not available
Aug 21, 2019 - 11:53 PM EDT / 2019.08.22 0353 UTC
Wind: from the SE (140 degrees) at 6 MPH (5 KT):0
Visibility: 10 mile(s):0
Sky conditions: clear
Temperature: 64.9 F (18.3 C)
Dew Point: 60.1 F (15.6 C)
Relative Humidity: 84%
Pressure (altimeter): 30.12 in. Hg (1019 hPa)
ob: KAIA 220353Z AUTO 14005KT 10SM CLR 18/16 A3012 RMK AO2 SLP164 T01830156
cycle: 4

Station Type Date Time Source
KAIA TAF 2019/08/21 18:39 UTC NOAA

TAF KAIA 211736Z 2118/2218 13012KT P6SM SCT035
FM220600 15010KT P6SM BKN020
FM221600 16012KT P6SM SCT035

Example: see airport list